Time;durP1;ratioP1;P1;durP2;ratioP2;P2;SDS_P1;SDS_P2;PMS_P1;PMS_P2;Temp;Humidity;BMP_temperature;BMP_pressure;BME280_temperature;BME280_humidity;BME280_pressure;Samples;Min_cycle;Max_cycle;Signal;HPM_P1;HPM_P2
2022/03/03 00:02:02;;;;;;;67.72;36.83;;;;;;;;;;5100179;28;20360;-81
2022/03/03 00:04:28;;;;;;;68.63;36.83;;;;;;;;;;5098022;28;20031;-77
2022/03/03 00:06:54;;;;;;;68.45;35.40;;;;;;;;;;5097264;28;20078;-77
2022/03/03 00:09:20;;;;;;;71.88;36.63;;;;;;;;;;5106308;28;20070;-78
2022/03/03 00:11:46;;;;;;;65.03;33.75;;;;;;;;;;5104159;28;20036;-78
2022/03/03 00:14:12;;;;;;;65.55;35.38;;;;;;;;;;5102215;27;20062;-78
2022/03/03 00:16:38;;;;;;;64.82;34.67;;;;;;;;;;5099616;28;20511;-80
2022/03/03 00:19:05;;;;;;;64.75;35.35;;;;;;;;;;5094375;28;20023;-78
2022/03/03 00:21:31;;;;;;;65.35;35.05;;;;;;;;;;5102886;28;20387;-78
2022/03/03 00:23:57;;;;;;;70.85;36.50;;;;;;;;;;5077260;28;20036;-77
2022/03/03 00:26:23;;;;;;;62.35;35.50;;;;;;;;;;5102405;27;20383;-78
2022/03/03 00:28:49;;;;;;;68.75;36.65;;;;;;;;;;5111240;28;20036;-78
2022/03/03 00:31:15;;;;;;;64.22;35.83;;;;;;;;;;5100724;28;20475;-78
2022/03/03 00:33:41;;;;;;;66.65;34.70;;;;;;;;;;5105174;28;20040;-78
2022/03/03 00:36:08;;;;;;;64.93;36.08;;;;;;;;;;5106503;27;20474;-80
2022/03/03 00:38:34;;;;;;;65.07;35.95;;;;;;;;;;5088722;28;20447;-78
2022/03/03 00:41:00;;;;;;;68.53;36.13;;;;;;;;;;5099324;28;20031;-77
2022/03/03 00:43:26;;;;;;;63.45;35.38;;;;;;;;;;5086436;28;20122;-78
2022/03/03 00:45:52;;;;;;;63.40;34.22;;;;;;;;;;5101105;28;20032;-78
2022/03/03 00:48:18;;;;;;;65.22;35.10;;;;;;;;;;5104275;27;20028;-78
2022/03/03 00:50:44;;;;;;;64.03;35.78;;;;;;;;;;5090186;27;20035;-77
2022/03/03 00:53:10;;;;;;;67.28;36.55;;;;;;;;;;5084696;28;20124;-76
2022/03/03 00:55:36;;;;;;;67.88;36.72;;;;;;;;;;5103360;27;20035;-78
2022/03/03 00:58:03;;;;;;;67.13;35.33;;;;;;;;;;5100018;28;20083;-79
2022/03/03 01:00:29;;;;;;;66.93;34.22;;;;;;;;;;5102233;27;20106;-77
2022/03/03 01:02:55;;;;;;;67.75;36.28;;;;;;;;;;5107611;27;20024;-77
2022/03/03 01:05:21;;;;;;;67.07;35.58;;;;;;;;;;5105793;28;20077;-77
2022/03/03 01:07:47;;;;;;;66.35;35.05;;;;;;;;;;5099624;28;20047;-77
2022/03/03 01:10:13;;;;;;;71.97;35.85;;;;;;;;;;5097449;28;20542;-78
2022/03/03 01:12:39;;;;;;;65.60;35.03;;;;;;;;;;5095175;27;20479;-78
2022/03/03 01:15:06;;;;;;;73.75;37.40;;;;;;;;;;5105730;28;20024;-78
2022/03/03 01:17:32;;;;;;;64.18;34.85;;;;;;;;;;5105419;28;20020;-78
2022/03/03 01:19:58;;;;;;;65.72;34.88;;;;;;;;;;5098909;28;20036;-77
2022/03/03 01:22:25;;;;;;;67.60;36.78;;;;;;;;;;5111692;28;20542;-78
2022/03/03 01:24:51;;;;;;;67.40;35.38;;;;;;;;;;5098169;28;20028;-78
2022/03/03 01:27:18;;;;;;;68.68;36.67;;;;;;;;;;5104008;27;20051;-79
2022/03/03 01:29:44;;;;;;;70.90;36.80;;;;;;;;;;5091200;28;20408;-78
2022/03/03 01:32:10;;;;;;;64.88;35.78;;;;;;;;;;5099513;28;20080;-78
2022/03/03 01:34:37;;;;;;;66.50;35.63;;;;;;;;;;5093105;28;20463;-79
2022/03/03 01:37:03;;;;;;;65.90;36.00;;;;;;;;;;5104623;27;20027;-78
2022/03/03 01:39:29;;;;;;;66.03;35.22;;;;;;;;;;5107246;28;20023;-78
2022/03/03 01:41:56;;;;;;;70.40;37.55;;;;;;;;;;5087139;28;20085;-78
2022/03/03 01:44:22;;;;;;;66.53;34.95;;;;;;;;;;5106642;28;20028;-78
2022/03/03 01:46:49;;;;;;;69.85;34.58;;;;;;;;;;5105321;28;20024;-78
2022/03/03 01:49:15;;;;;;;64.32;37.50;;;;;;;;;;5103112;27;20055;-78
2022/03/03 01:51:41;;;;;;;69.97;35.63;;;;;;;;;;5097915;28;20051;-80
2022/03/03 01:54:07;;;;;;;67.15;34.20;;;;;;;;;;5097559;27;20030;-81
2022/03/03 01:56:34;;;;;;;69.85;35.08;;;;;;;;;;5097601;27;20399;-79
2022/03/03 01:59:00;;;;;;;63.97;35.78;;;;;;;;;;5098674;27;20024;-78
2022/03/03 02:01:27;;;;;;;73.88;36.85;;;;;;;;;;5104042;28;20043;-78
2022/03/03 02:03:53;;;;;;;68.28;35.55;;;;;;;;;;5097921;28;20114;-78
2022/03/03 02:06:19;;;;;;;66.15;35.63;;;;;;;;;;5101748;28;20032;-79
2022/03/03 02:08:45;;;;;;;67.47;37.50;;;;;;;;;;5089411;28;20487;-78
2022/03/03 02:11:11;;;;;;;66.30;36.03;;;;;;;;;;5080672;28;20052;-78
2022/03/03 02:13:38;;;;;;;72.68;37.53;;;;;;;;;;5107199;27;20027;-78
2022/03/03 02:16:08;;;;;;;74.78;38.83;;;;;;;;;;5097116;28;20039;-81
2022/03/03 02:18:39;;;;;;;73.32;36.65;;;;;;;;;;5099487;28;20023;-79
2022/03/03 02:21:05;;;;;;;75.93;36.67;;;;;;;;;;5101239;28;20423;-78
2022/03/03 02:23:31;;;;;;;72.90;38.47;;;;;;;;;;5097441;27;20043;-80
2022/03/03 02:26:00;;;;;;;71.53;36.83;;;;;;;;;;5099914;28;20028;-79
2022/03/03 02:28:26;;;;;;;69.32;35.97;;;;;;;;;;5084492;28;20060;-79
2022/03/03 02:30:52;;;;;;;79.78;38.40;;;;;;;;;;5101834;28;20077;-78
2022/03/03 02:33:18;;;;;;;66.95;36.78;;;;;;;;;;5106943;28;20113;-78
2022/03/03 02:35:45;;;;;;;77.38;38.20;;;;;;;;;;5095754;28;20101;-78
2022/03/03 02:38:11;;;;;;;74.32;39.72;;;;;;;;;;5100112;28;20024;-79
2022/03/03 02:40:37;;;;;;;78.35;38.75;;;;;;;;;;5095089;28;20040;-80
2022/03/03 02:43:03;;;;;;;78.32;36.50;;;;;;;;;;5084356;28;20039;-78
2022/03/03 02:45:29;;;;;;;74.63;39.28;;;;;;;;;;5094475;28;20020;-78
2022/03/03 02:47:55;;;;;;;76.00;37.30;;;;;;;;;;5101315;28;20051;-78
2022/03/03 02:50:24;;;;;;;75.43;37.15;;;;;;;;;;5107081;28;20039;-78
2022/03/03 02:52:50;;;;;;;78.25;37.22;;;;;;;;;;5096629;28;20079;-82
2022/03/03 02:55:16;;;;;;;75.93;38.35;;;;;;;;;;5100913;28;20510;-78
2022/03/03 02:57:56;;;;;;;74.40;37.10;;;;;;;;;;5082477;28;20034;-79
2022/03/03 03:00:27;;;;;;;76.38;37.58;;;;;;;;;;5100407;28;20052;-78
2022/03/03 03:02:53;;;;;;;71.68;37.60;;;;;;;;;;5098660;28;20420;-78
2022/03/03 03:05:19;;;;;;;75.45;38.38;;;;;;;;;;5111765;28;20028;-79
2022/03/03 03:07:45;;;;;;;73.55;39.42;;;;;;;;;;5107056;27;20370;-79
2022/03/03 03:10:12;;;;;;;68.55;35.80;;;;;;;;;;5114407;28;20114;-79
2022/03/03 03:12:38;;;;;;;74.30;36.33;;;;;;;;;;5101699;27;20036;-79
2022/03/03 03:15:04;;;;;;;71.95;36.58;;;;;;;;;;5098994;28;20017;-78
2022/03/03 03:17:30;;;;;;;71.55;37.28;;;;;;;;;;5104432;28;20019;-78
2022/03/03 03:19:56;;;;;;;73.18;37.63;;;;;;;;;;5103762;28;20031;-79
2022/03/03 03:22:22;;;;;;;73.75;35.42;;;;;;;;;;5092130;28;20032;-80
2022/03/03 03:24:48;;;;;;;64.82;35.05;;;;;;;;;;5101181;28;20056;-82
2022/03/03 03:27:14;;;;;;;71.85;35.83;;;;;;;;;;5103237;28;20031;-78
2022/03/03 03:29:40;;;;;;;66.57;35.10;;;;;;;;;;5107334;28;20394;-79
2022/03/03 03:32:07;;;;;;;71.88;35.70;;;;;;;;;;5105784;27;20406;-78
2022/03/03 03:34:33;;;;;;;66.32;35.15;;;;;;;;;;5109444;28;20047;-78
2022/03/03 03:36:59;;;;;;;72.60;36.92;;;;;;;;;;5104820;27;20035;-78
2022/03/03 03:39:25;;;;;;;70.25;37.13;;;;;;;;;;5110432;28;20032;-78
2022/03/03 03:41:51;;;;;;;66.38;34.50;;;;;;;;;;5099666;28;20043;-77
2022/03/03 03:44:17;;;;;;;69.55;35.75;;;;;;;;;;5089143;27;20050;-77
2022/03/03 03:46:43;;;;;;;73.63;35.00;;;;;;;;;;5105774;28;20032;-80
2022/03/03 03:49:09;;;;;;;70.18;35.58;;;;;;;;;;5100507;27;20414;-78
2022/03/03 03:51:36;;;;;;;75.40;35.30;;;;;;;;;;5099131;28;20063;-78
2022/03/03 03:54:02;;;;;;;65.05;35.15;;;;;;;;;;5098560;27;20036;-78
2022/03/03 03:56:29;;;;;;;65.28;34.35;;;;;;;;;;5100014;27;20040;-78
2022/03/03 03:58:55;;;;;;;65.43;35.40;;;;;;;;;;5111267;28;20478;-78
2022/03/03 04:01:21;;;;;;;68.03;36.17;;;;;;;;;;5105832;28;20407;-78
2022/03/03 04:03:47;;;;;;;61.25;34.75;;;;;;;;;;5111761;27;20028;-78
2022/03/03 04:06:13;;;;;;;66.60;34.50;;;;;;;;;;5104280;27;20024;-78
2022/03/03 04:08:39;;;;;;;65.50;34.15;;;;;;;;;;5098107;28;20539;-80
2022/03/03 04:11:06;;;;;;;59.80;32.13;;;;;;;;;;5103228;27;20050;-79
2022/03/03 04:13:32;;;;;;;58.53;33.15;;;;;;;;;;5094814;27;20020;-80
2022/03/03 04:15:58;;;;;;;67.97;35.33;;;;;;;;;;5103728;28;20019;-77
2022/03/03 04:18:24;;;;;;;66.80;35.35;;;;;;;;;;5098148;27;20502;-77
2022/03/03 04:20:50;;;;;;;73.45;34.65;;;;;;;;;;5099841;27;20054;-77
2022/03/03 04:23:17;;;;;;;64.00;34.20;;;;;;;;;;5095467;28;20057;-77
2022/03/03 04:25:43;;;;;;;76.75;34.03;;;;;;;;;;5111490;28;20020;-78
2022/03/03 04:28:09;;;;;;;63.38;33.30;;;;;;;;;;5101022;28;20111;-77
2022/03/03 04:30:36;;;;;;;62.17;32.80;;;;;;;;;;5106473;28;20031;-78
2022/03/03 04:33:02;;;;;;;65.30;33.03;;;;;;;;;;5105705;27;20141;-77
2022/03/03 04:35:28;;;;;;;65.85;34.53;;;;;;;;;;5098628;28;20028;-77
2022/03/03 04:37:54;;;;;;;61.03;33.83;;;;;;;;;;5103393;27;20027;-77
2022/03/03 04:40:21;;;;;;;68.10;33.55;;;;;;;;;;5085488;28;20032;-77
2022/03/03 04:42:47;;;;;;;63.75;35.13;;;;;;;;;;5096356;28;20024;-77
2022/03/03 04:45:13;;;;;;;66.43;34.17;;;;;;;;;;5096320;28;20095;-79
2022/03/03 04:47:39;;;;;;;61.38;31.85;;;;;;;;;;5079472;28;20031;-79
2022/03/03 04:50:06;;;;;;;60.85;31.17;;;;;;;;;;5099902;28;20020;-78
2022/03/03 04:52:33;;;;;;;59.53;31.45;;;;;;;;;;5100451;28;20032;-79
2022/03/03 04:54:59;;;;;;;67.07;34.35;;;;;;;;;;5099538;28;20039;-79
2022/03/03 04:57:25;;;;;;;60.38;32.05;;;;;;;;;;5095730;28;20506;-78
2022/03/03 04:59:51;;;;;;;60.13;31.38;;;;;;;;;;5097522;27;20508;-79
2022/03/03 05:02:17;;;;;;;63.38;33.03;;;;;;;;;;5099186;28;20445;-80
2022/03/03 05:04:43;;;;;;;63.42;32.67;;;;;;;;;;5095946;28;20028;-80
2022/03/03 05:07:09;;;;;;;62.85;32.90;;;;;;;;;;5102639;28;20431;-79
2022/03/03 05:09:36;;;;;;;61.80;32.78;;;;;;;;;;5102246;28;20387;-79
2022/03/03 05:12:02;;;;;;;59.08;33.13;;;;;;;;;;5101017;27;20043;-80
2022/03/03 05:14:29;;;;;;;66.55;33.10;;;;;;;;;;5110861;28;20118;-78
2022/03/03 05:16:55;;;;;;;55.30;29.95;;;;;;;;;;5098664;28;20047;-78
2022/03/03 05:19:21;;;;;;;61.65;31.55;;;;;;;;;;5095839;28;20368;-77
2022/03/03 05:21:47;;;;;;;60.03;31.58;;;;;;;;;;5097586;28;20024;-77
2022/03/03 05:24:13;;;;;;;61.47;30.77;;;;;;;;;;5098018;28;20023;-78
2022/03/03 05:26:39;;;;;;;56.30;33.10;;;;;;;;;;5093746;28;20028;-78
2022/03/03 05:29:05;;;;;;;59.95;33.58;;;;;;;;;;5101289;28;20034;-78
2022/03/03 05:31:31;;;;;;;67.43;35.83;;;;;;;;;;5107089;28;20039;-81
2022/03/03 05:33:57;;;;;;;56.47;29.88;;;;;;;;;;5093982;28;20523;-80
2022/03/03 05:36:25;;;;;;;58.55;30.45;;;;;;;;;;5091899;28;20051;-79
2022/03/03 05:38:52;;;;;;;54.78;30.58;;;;;;;;;;5068247;28;20036;-78
2022/03/03 05:41:18;;;;;;;50.55;28.27;;;;;;;;;;5085507;28;20110;-78
2022/03/03 05:43:45;;;;;;;56.25;30.20;;;;;;;;;;5087013;28;20047;-79
2022/03/03 05:46:12;;;;;;;60.45;30.73;;;;;;;;;;5081197;28;20480;-78
2022/03/03 05:48:38;;;;;;;54.67;30.02;;;;;;;;;;5079184;28;20036;-79
2022/03/03 05:51:05;;;;;;;52.95;28.45;;;;;;;;;;5082749;28;20028;-78
2022/03/03 05:53:31;;;;;;;56.42;29.70;;;;;;;;;;5085724;28;20086;-80
2022/03/03 05:55:58;;;;;;;50.65;28.17;;;;;;;;;;5078193;28;20384;-79
2022/03/03 05:58:29;;;;;;;52.00;28.85;;;;;;;;;;5082848;28;20028;-78
2022/03/03 06:00:56;;;;;;;61.40;33.63;;;;;;;;;;5085695;28;20663;-79
2022/03/03 06:03:23;;;;;;;95.65;47.90;;;;;;;;;;5079101;28;20039;-80
2022/03/03 06:05:50;;;;;;;55.67;32.28;;;;;;;;;;5085413;28;20032;-78
2022/03/03 06:08:18;;;;;;;52.38;28.95;;;;;;;;;;5079865;28;20476;-78
2022/03/03 06:10:51;;;;;;;51.40;29.50;;;;;;;;;;5062862;28;20475;-80
2022/03/03 06:13:25;;;;;;;54.00;28.85;;;;;;;;;;5086808;28;20032;-79
2022/03/03 06:15:52;;;;;;;50.08;28.75;;;;;;;;;;5080108;28;20364;-77
2022/03/03 06:18:24;;;;;;;51.83;27.98;;;;;;;;;;5077694;28;20043;-79
2022/03/03 06:20:51;;;;;;;51.60;27.98;;;;;;;;;;5075663;28;20031;-81
2022/03/03 06:23:17;;;;;;;55.10;29.15;;;;;;;;;;5076819;28;20031;-78
2022/03/03 06:25:44;;;;;;;54.90;29.77;;;;;;;;;;5085516;28;20028;-78
2022/03/03 06:28:10;;;;;;;50.13;28.25;;;;;;;;;;5076033;28;20036;-77
2022/03/03 06:30:36;;;;;;;55.72;29.25;;;;;;;;;;5081645;28;20055;-78
2022/03/03 06:33:03;;;;;;;59.33;29.35;;;;;;;;;;5056709;28;20089;-76
2022/03/03 06:35:35;;;;;;;46.58;26.50;;;;;;;;;;5081005;28;20483;-78
2022/03/03 06:38:02;;;;;;;52.17;28.30;;;;;;;;;;5080054;28;20028;-76
2022/03/03 06:40:29;;;;;;;51.35;29.08;;;;;;;;;;5087037;28;20499;-76
2022/03/03 06:43:00;;;;;;;55.53;29.05;;;;;;;;;;5077838;28;20127;-76
2022/03/03 06:45:26;;;;;;;51.08;29.20;;;;;;;;;;5089324;28;20036;-76
2022/03/03 06:47:54;;;;;;;55.97;28.35;;;;;;;;;;5082285;28;20049;-76
2022/03/03 06:50:20;;;;;;;59.85;30.50;;;;;;;;;;5080744;28;20127;-77
2022/03/03 06:52:47;;;;;;;54.85;30.20;;;;;;;;;;5083238;28;20043;-80
2022/03/03 06:55:16;;;;;;;53.65;30.77;;;;;;;;;;5085525;28;20078;-77
2022/03/03 06:57:42;;;;;;;51.33;26.95;;;;;;;;;;5085727;28;20024;-76
2022/03/03 07:00:09;;;;;;;46.10;27.42;;;;;;;;;;5081674;28;20024;-76
2022/03/03 07:02:37;;;;;;;53.53;27.15;;;;;;;;;;5080418;28;20037;-76
2022/03/03 07:05:03;;;;;;;51.85;27.52;;;;;;;;;;5083404;28;20418;-76
2022/03/03 07:07:30;;;;;;;52.45;28.75;;;;;;;;;;5086549;28;20391;-77
2022/03/03 07:09:57;;;;;;;48.17;25.85;;;;;;;;;;5073117;28;20032;-77
2022/03/03 07:12:25;;;;;;;46.22;25.42;;;;;;;;;;5077395;28;20127;-77
2022/03/03 07:14:51;;;;;;;46.88;27.42;;;;;;;;;;5090581;28;20035;-77
2022/03/03 07:17:24;;;;;;;41.95;24.35;;;;;;;;;;5086685;28;20070;-77
2022/03/03 07:19:56;;;;;;;46.38;25.05;;;;;;;;;;5072684;28;20024;-76
2022/03/03 07:22:38;;;;;;;48.40;25.23;;;;;;;;;;5084331;28;20036;-77
2022/03/03 07:25:09;;;;;;;43.92;23.83;;;;;;;;;;5078564;28;20415;-76
2022/03/03 07:27:36;;;;;;;43.05;25.63;;;;;;;;;;5083935;28;20020;-76
2022/03/03 07:30:07;;;;;;;45.80;25.92;;;;;;;;;;5066483;28;20116;-78
2022/03/03 07:32:36;;;;;;;43.55;25.27;;;;;;;;;;5071858;28;20032;-78
2022/03/03 07:35:10;;;;;;;43.00;25.33;;;;;;;;;;5071987;28;20072;-77
2022/03/03 07:37:39;;;;;;;39.25;23.60;;;;;;;;;;5053956;28;20029;-77
2022/03/03 07:40:07;;;;;;;44.17;23.40;;;;;;;;;;5084515;28;20038;-76
2022/03/03 07:42:34;;;;;;;40.05;24.63;;;;;;;;;;5085323;28;20032;-77
2022/03/03 07:45:01;;;;;;;48.30;24.42;;;;;;;;;;5080671;28;20043;-77
2022/03/03 07:47:28;;;;;;;43.85;24.02;;;;;;;;;;5066767;28;20103;-79
2022/03/03 07:49:55;;;;;;;57.42;31.58;;;;;;;;;;5076078;28;20044;-76
2022/03/03 07:52:21;;;;;;;36.55;22.40;;;;;;;;;;5076518;28;20052;-78
2022/03/03 07:54:47;;;;;;;42.67;22.45;;;;;;;;;;5086417;28;20387;-78
2022/03/03 07:57:16;;;;;;;41.38;23.48;;;;;;;;;;5085770;28;20017;-77
2022/03/03 07:59:46;;;;;;;34.50;20.90;;;;;;;;;;5092067;28;20028;-78
2022/03/03 08:02:15;;;;;;;37.67;22.50;;;;;;;;;;5087860;28;20028;-78
2022/03/03 08:04:44;;;;;;;40.58;20.50;;;;;;;;;;5085218;28;20478;-78
2022/03/03 08:07:11;;;;;;;35.92;20.98;;;;;;;;;;5089883;28;20028;-77
2022/03/03 08:09:39;;;;;;;33.90;20.13;;;;;;;;;;5082934;28;20097;-78
2022/03/03 08:12:05;;;;;;;33.25;19.80;;;;;;;;;;5076757;28;20055;-79
2022/03/03 08:14:32;;;;;;;33.42;20.90;;;;;;;;;;5090703;28;20094;-78
2022/03/03 08:16:58;;;;;;;30.38;18.48;;;;;;;;;;5071952;28;20016;-78
2022/03/03 08:19:24;;;;;;;33.38;19.90;;;;;;;;;;5077364;28;20040;-77
2022/03/03 08:21:50;;;;;;;33.42;19.27;;;;;;;;;;5079481;28;20517;-78
2022/03/03 08:24:17;;;;;;;35.33;20.75;;;;;;;;;;5077799;28;20044;-78
2022/03/03 08:26:45;;;;;;;34.38;20.10;;;;;;;;;;5084107;28;20500;-78
2022/03/03 08:29:14;;;;;;;33.13;19.73;;;;;;;;;;5085666;28;20488;-77
2022/03/03 08:31:47;;;;;;;30.67;20.08;;;;;;;;;;5076620;28;20040;-77
2022/03/03 08:34:23;;;;;;;31.38;19.05;;;;;;;;;;5092415;28;20094;-77
2022/03/03 08:36:56;;;;;;;29.38;18.35;;;;;;;;;;5104067;28;20053;-77
2022/03/03 08:39:27;;;;;;;31.63;19.17;;;;;;;;;;5102358;28;20036;-77
2022/03/03 08:42:00;;;;;;;28.52;17.40;;;;;;;;;;5102633;28;20077;-77
2022/03/03 08:44:27;;;;;;;27.13;17.58;;;;;;;;;;5105047;27;20503;-77
2022/03/03 08:46:55;;;;;;;25.60;17.25;;;;;;;;;;5106810;28;20023;-79
2022/03/03 08:49:22;;;;;;;25.25;16.60;;;;;;;;;;5108146;28;20023;-77
2022/03/03 08:51:48;;;;;;;27.77;18.40;;;;;;;;;;5091626;28;20497;-78
2022/03/03 08:54:15;;;;;;;27.45;18.00;;;;;;;;;;5103340;28;20585;-80
2022/03/03 08:56:41;;;;;;;26.80;17.90;;;;;;;;;;5096810;28;20042;-77
2022/03/03 08:59:07;;;;;;;26.58;17.48;;;;;;;;;;5101945;28;20023;-78
2022/03/03 09:01:34;;;;;;;26.85;17.90;;;;;;;;;;5104343;27;20092;-78
2022/03/03 09:04:00;;;;;;;26.42;16.98;;;;;;;;;;5102668;28;20036;-77
2022/03/03 09:06:26;;;;;;;25.58;17.27;;;;;;;;;;5098055;28;20039;-78
2022/03/03 09:08:52;;;;;;;27.83;17.17;;;;;;;;;;5100262;28;20031;-77
2022/03/03 09:11:18;;;;;;;23.63;16.80;;;;;;;;;;5099507;27;20028;-78
2022/03/03 09:13:45;;;;;;;26.17;18.55;;;;;;;;;;5106928;27;20023;-78
2022/03/03 09:16:11;;;;;;;24.15;16.63;;;;;;;;;;5094018;28;20028;-80
2022/03/03 09:18:37;;;;;;;24.73;16.75;;;;;;;;;;5102893;27;20035;-78
2022/03/03 09:21:03;;;;;;;27.58;17.27;;;;;;;;;;5102424;28;20111;-78
2022/03/03 09:23:29;;;;;;;24.88;17.05;;;;;;;;;;5104471;27;20031;-78
2022/03/03 09:25:55;;;;;;;25.70;16.38;;;;;;;;;;5098340;28;20054;-78
2022/03/03 09:28:21;;;;;;;25.45;16.85;;;;;;;;;;5092921;28;20032;-77
2022/03/03 09:30:49;;;;;;;24.75;16.67;;;;;;;;;;5100983;28;20058;-78
2022/03/03 09:33:15;;;;;;;23.27;16.33;;;;;;;;;;5103696;28;20081;-77
2022/03/03 09:35:41;;;;;;;22.08;15.07;;;;;;;;;;5098253;28;20028;-77
2022/03/03 09:38:07;;;;;;;21.98;16.63;;;;;;;;;;5102986;27;20111;-79
2022/03/03 09:40:33;;;;;;;22.88;15.02;;;;;;;;;;5076965;28;20055;-78
2022/03/03 09:43:00;;;;;;;20.42;15.30;;;;;;;;;;5103873;28;20031;-77
2022/03/03 09:45:26;;;;;;;21.48;16.13;;;;;;;;;;5097707;28;20026;-78
2022/03/03 09:47:53;;;;;;;21.10;13.85;;;;;;;;;;5105774;27;20107;-78
2022/03/03 09:50:20;;;;;;;22.77;15.27;;;;;;;;;;5100442;28;20039;-76
2022/03/03 09:52:46;;;;;;;19.33;14.52;;;;;;;;;;5089872;28;20036;-79
2022/03/03 09:55:12;;;;;;;21.60;14.50;;;;;;;;;;5101426;28;20031;-78
2022/03/03 09:57:38;;;;;;;23.55;15.38;;;;;;;;;;5104138;28;20047;-78
2022/03/03 10:00:09;;;;;;;19.98;14.68;;;;;;;;;;5104079;28;20023;-78
2022/03/03 10:02:58;;;;;;;21.13;15.25;;;;;;;;;;5099777;28;20036;-79
2022/03/03 10:05:28;;;;;;;18.25;13.60;;;;;;;;;;5092512;28;20040;-78
2022/03/03 10:08:01;;;;;;;30.90;19.45;;;;;;;;;;5106385;28;20023;-81
2022/03/03 10:10:27;;;;;;;28.17;17.60;;;;;;;;;;5105668;27;20100;-79
2022/03/03 10:12:56;;;;;;;18.35;14.10;;;;;;;;;;5101984;28;20047;-79
2022/03/03 10:15:24;;;;;;;19.33;14.63;;;;;;;;;;5104418;28;20736;-79
2022/03/03 10:17:55;;;;;;;20.63;13.65;;;;;;;;;;5103660;28;20024;-79
2022/03/03 10:20:21;;;;;;;16.75;12.70;;;;;;;;;;5104553;28;20104;-79
2022/03/03 10:23:07;;;;;;;15.25;11.65;;;;;;;;;;5102402;27;20031;-79
2022/03/03 10:25:35;;;;;;;19.30;12.45;;;;;;;;;;5098123;28;20502;-79
2022/03/03 10:28:11;;;;;;;19.13;13.40;;;;;;;;;;5099306;28;20026;-79
2022/03/03 10:30:57;;;;;;;16.17;12.57;;;;;;;;;;5106979;28;20020;-80
2022/03/03 10:33:28;;;;;;;20.38;13.10;;;;;;;;;;5095764;28;20052;-79
2022/03/03 10:36:14;;;;;;;17.45;12.40;;;;;;;;;;5083786;28;20162;-79
2022/03/03 10:38:50;;;;;;;22.65;14.32;;;;;;;;;;5101125;28;20024;-79
2022/03/03 10:41:31;;;;;;;16.33;12.68;;;;;;;;;;5104613;28;20161;-79
2022/03/03 10:44:00;;;;;;;16.77;11.93;;;;;;;;;;5099033;28;20042;-77
2022/03/03 10:46:26;;;;;;;15.65;11.50;;;;;;;;;;5105721;28;20036;-77
2022/03/03 10:48:52;;;;;;;16.88;13.18;;;;;;;;;;5101612;28;20146;-78
2022/03/03 10:51:21;;;;;;;13.13;10.88;;;;;;;;;;5098570;28;20259;-79
2022/03/03 10:53:47;;;;;;;14.50;11.57;;;;;;;;;;5103962;28;20128;-79
2022/03/03 10:56:18;;;;;;;14.90;12.07;;;;;;;;;;5098286;28;20027;-77
2022/03/03 10:58:47;;;;;;;14.48;10.02;;;;;;;;;;5100390;28;20371;-79
2022/03/03 11:01:14;;;;;;;18.20;11.30;;;;;;;;;;5102399;28;20047;-79
2022/03/03 11:03:41;;;;;;;12.30;10.15;;;;;;;;;;5102482;28;20394;-79
2022/03/03 11:06:07;;;;;;;13.95;10.80;;;;;;;;;;5095309;28;20039;-78
2022/03/03 11:08:35;;;;;;;13.40;11.05;;;;;;;;;;5099383;28;20035;-78
2022/03/03 11:11:01;;;;;;;14.15;11.05;;;;;;;;;;5095066;28;20090;-77
2022/03/03 11:13:27;;;;;;;15.25;11.20;;;;;;;;;;5081919;28;20040;-77
2022/03/03 11:15:54;;;;;;;14.13;11.10;;;;;;;;;;5104083;28;20031;-78
2022/03/03 11:18:21;;;;;;;13.35;10.65;;;;;;;;;;5102915;28;20036;-77
2022/03/03 11:20:47;;;;;;;13.65;10.73;;;;;;;;;;5102758;28;20083;-77
2022/03/03 11:23:13;;;;;;;15.98;11.82;;;;;;;;;;5098963;28;20032;-77
2022/03/03 11:25:39;;;;;;;12.88;10.30;;;;;;;;;;5105600;28;20031;-77
2022/03/03 11:28:13;;;;;;;14.65;10.15;;;;;;;;;;5108677;28;20024;-77
2022/03/03 11:30:39;;;;;;;13.77;10.75;;;;;;;;;;5100790;28;20030;-77
2022/03/03 11:33:25;;;;;;;14.52;10.13;;;;;;;;;;5102433;28;20042;-77
2022/03/03 11:35:56;;;;;;;12.57;10.05;;;;;;;;;;5106393;28;20032;-77
2022/03/03 11:38:23;;;;;;;11.95;10.43;;;;;;;;;;5087964;28;20043;-77
2022/03/03 11:40:57;;;;;;;14.73;10.05;;;;;;;;;;5099456;28;20015;-76
2022/03/03 11:43:24;;;;;;;14.57;10.43;;;;;;;;;;5112067;28;20032;-75
2022/03/03 11:45:51;;;;;;;13.45;10.43;;;;;;;;;;5100992;28;20054;-77
2022/03/03 11:48:22;;;;;;;12.95;9.68;;;;;;;;;;5099517;28;20026;-77
2022/03/03 11:50:48;;;;;;;14.43;9.63;;;;;;;;;;5108010;27;20883;-77
2022/03/03 11:53:18;;;;;;;12.70;9.32;;;;;;;;;;5099258;28;20073;-78
2022/03/03 11:55:47;;;;;;;14.63;10.20;;;;;;;;;;5098654;27;20032;-77
2022/03/03 11:58:31;;;;;;;11.90;8.52;;;;;;;;;;5106601;28;20028;-77
2022/03/03 12:01:01;;;;;;;43.65;26.08;;;;;;;;;;5101047;28;20463;-77
2022/03/03 12:03:28;;;;;;;18.05;11.65;;;;;;;;;;5109398;28;20387;-77
2022/03/03 12:06:14;;;;;;;17.23;11.35;;;;;;;;;;5112432;28;20058;-77
2022/03/03 12:08:41;;;;;;;11.80;8.48;;;;;;;;;;5102814;28;20038;-77
2022/03/03 12:11:26;;;;;;;17.60;8.63;;;;;;;;;;5102024;27;20032;-77
2022/03/03 12:13:52;;;;;;;10.18;7.75;;;;;;;;;;5100636;28;20107;-77
2022/03/03 12:16:22;;;;;;;10.25;7.95;;;;;;;;;;5101208;28;20535;-77
2022/03/03 12:19:08;;;;;;;10.40;7.25;;;;;;;;;;5103227;28;20957;-77
2022/03/03 12:21:36;;;;;;;12.48;7.57;;;;;;;;;;5111817;28;20030;-77
2022/03/03 12:24:14;;;;;;;9.82;7.15;;;;;;;;;;5104411;28;20043;-77
2022/03/03 12:29:38;;;;;;;10.07;7.65;;;;;;;;;;5108247;28;20044;-77
2022/03/03 12:32:22;;;;;;;15.20;8.52;;;;;;;;;;5106407;28;20039;-76
2022/03/03 12:34:48;;;;;;;11.40;7.80;;;;;;;;;;5106658;28;20131;-77
2022/03/03 12:37:14;;;;;;;12.73;7.07;;;;;;;;;;5099019;28;20114;-77
2022/03/03 12:39:47;;;;;;;8.60;6.47;;;;;;;;;;5101655;28;20024;-77
2022/03/03 12:42:16;;;;;;;10.68;7.05;;;;;;;;;;5102620;28;20038;-77
2022/03/03 12:44:45;;;;;;;12.13;8.05;;;;;;;;;;5100851;27;20475;-78
2022/03/03 12:47:13;;;;;;;25.33;15.93;;;;;;;;;;5086084;28;20039;-76
2022/03/03 12:49:40;;;;;;;11.95;9.50;;;;;;;;;;5106670;28;20371;-76
2022/03/03 12:52:06;;;;;;;11.73;9.38;;;;;;;;;;5101076;28;20086;-74
2022/03/03 12:54:36;;;;;;;15.65;9.38;;;;;;;;;;5098141;28;20015;-79
2022/03/03 12:57:04;;;;;;;13.45;9.13;;;;;;;;;;5105610;28;20092;-77
2022/03/03 12:59:31;;;;;;;13.52;9.32;;;;;;;;;;5107149;28;20034;-77
2022/03/03 13:01:58;;;;;;;12.45;9.85;;;;;;;;;;5095017;28;20035;-77
2022/03/03 13:04:24;;;;;;;13.30;9.82;;;;;;;;;;5100133;28;20050;-79
2022/03/03 13:07:05;;;;;;;11.60;9.45;;;;;;;;;;5101162;27;20023;-77
2022/03/03 13:09:31;;;;;;;14.10;9.50;;;;;;;;;;5104544;28;20084;-77
2022/03/03 13:11:57;;;;;;;10.15;8.63;;;;;;;;;;5105065;27;20051;-77
2022/03/03 13:14:23;;;;;;;12.35;9.35;;;;;;;;;;5084765;28;20032;-79
2022/03/03 13:16:49;;;;;;;14.32;10.20;;;;;;;;;;5098856;28;20043;-77
2022/03/03 13:19:15;;;;;;;16.33;10.32;;;;;;;;;;5094364;28;20027;-76
2022/03/03 13:21:43;;;;;;;14.35;10.73;;;;;;;;;;5095137;28;20119;-77
2022/03/03 13:24:10;;;;;;;15.98;10.57;;;;;;;;;;5099680;28;20497;-76
2022/03/03 13:26:45;;;;;;;14.70;10.90;;;;;;;;;;5102145;28;20110;-77
2022/03/03 13:29:23;;;;;;;15.30;10.38;;;;;;;;;;5099813;28;20235;-77
2022/03/03 13:31:51;;;;;;;16.00;10.95;;;;;;;;;;5099585;28;20123;-76
2022/03/03 13:34:22;;;;;;;15.27;11.65;;;;;;;;;;5098708;27;20178;-76
2022/03/03 13:36:48;;;;;;;15.50;10.73;;;;;;;;;;5102312;27;20055;-76
2022/03/03 13:39:33;;;;;;;14.68;10.73;;;;;;;;;;5103651;28;20111;-77
2022/03/03 13:42:06;;;;;;;15.98;11.65;;;;;;;;;;5102775;28;20395;-77
2022/03/03 13:44:33;;;;;;;18.52;11.45;;;;;;;;;;5106082;27;20051;-77
2022/03/03 13:46:59;;;;;;;15.98;10.13;;;;;;;;;;5102538;28;20107;-76
2022/03/03 13:49:26;;;;;;;12.57;9.07;;;;;;;;;;5103546;28;20020;-75
2022/03/03 13:52:04;;;;;;;12.07;8.85;;;;;;;;;;5102248;28;20043;-76
2022/03/03 13:54:46;;;;;;;18.50;9.27;;;;;;;;;;5102491;28;20676;-75
2022/03/03 13:57:31;;;;;;;12.07;9.48;;;;;;;;;;5105230;28;20085;-75
2022/03/03 13:59:58;;;;;;;14.82;10.07;;;;;;;;;;5097552;28;20399;-75
2022/03/03 14:02:25;;;;;;;17.10;10.75;;;;;;;;;;5101044;28;20028;-76
2022/03/03 14:05:01;;;;;;;16.33;11.63;;;;;;;;;;5102868;28;20051;-76
2022/03/03 14:07:32;;;;;;;20.70;14.00;;;;;;;;;;5093468;28;20908;-78
2022/03/03 14:10:03;;;;;;;19.75;12.82;;;;;;;;;;5103083;28;20028;-76
2022/03/03 14:12:29;;;;;;;16.00;11.35;;;;;;;;;;5103714;28;20042;-76
2022/03/03 14:14:55;;;;;;;14.38;10.05;;;;;;;;;;5104624;28;20031;-76
2022/03/03 14:17:21;;;;;;;17.67;10.68;;;;;;;;;;5104733;28;20028;-76
2022/03/03 14:19:48;;;;;;;14.80;10.40;;;;;;;;;;5104406;27;20027;-76
2022/03/03 14:22:21;;;;;;;14.45;11.07;;;;;;;;;;5103212;28;20055;-76
2022/03/03 14:24:48;;;;;;;15.80;11.13;;;;;;;;;;5100593;28;20043;-76
2022/03/03 14:27:14;;;;;;;13.43;9.73;;;;;;;;;;5101774;28;20055;-77